sensor_id;sensor_type;location;lat;lon;timestamp;P1;durP1;ratioP1;P2;durP2;ratioP2
25069;SDS011;13064;48.162;11.536;2022-12-07T00:01:54;11.15;;;8.27;;
25069;SDS011;13064;48.162;11.536;2022-12-07T00:04:21;15.10;;;9.13;;
25069;SDS011;13064;48.162;11.536;2022-12-07T00:06:52;12.32;;;9.02;;
25069;SDS011;13064;48.162;11.536;2022-12-07T00:09:20;11.88;;;8.63;;
25069;SDS011;13064;48.162;11.536;2022-12-07T00:11:48;12.38;;;8.77;;
25069;SDS011;13064;48.162;11.536;2022-12-07T00:14:16;14.55;;;9.10;;
25069;SDS011;13064;48.162;11.536;2022-12-07T00:16:44;13.43;;;9.27;;
25069;SDS011;13064;48.162;11.536;2022-12-07T00:19:12;13.48;;;9.38;;
25069;SDS011;13064;48.162;11.536;2022-12-07T00:21:40;13.70;;;9.32;;
25069;SDS011;13064;48.162;11.536;2022-12-07T00:24:09;11.77;;;8.35;;
25069;SDS011;13064;48.162;11.536;2022-12-07T00:26:37;14.40;;;10.02;;
25069;SDS011;13064;48.162;11.536;2022-12-07T00:29:06;13.45;;;9.00;;
25069;SDS011;13064;48.162;11.536;2022-12-07T00:31:35;12.30;;;8.90;;
25069;SDS011;13064;48.162;11.536;2022-12-07T00:34:06;15.75;;;8.70;;
25069;SDS011;13064;48.162;11.536;2022-12-07T00:36:34;13.45;;;9.18;;
25069;SDS011;13064;48.162;11.536;2022-12-07T00:39:02;12.80;;;8.13;;
25069;SDS011;13064;48.162;11.536;2022-12-07T00:41:30;11.15;;;8.23;;
25069;SDS011;13064;48.162;11.536;2022-12-07T00:43:58;12.13;;;8.07;;
25069;SDS011;13064;48.162;11.536;2022-12-07T00:46:25;11.95;;;8.57;;
25069;SDS011;13064;48.162;11.536;2022-12-07T00:48:53;11.38;;;8.18;;
25069;SDS011;13064;48.162;11.536;2022-12-07T00:51:22;12.48;;;8.70;;
25069;SDS011;13064;48.162;11.536;2022-12-07T00:53:50;13.07;;;8.63;;
25069;SDS011;13064;48.162;11.536;2022-12-07T00:56:21;12.73;;;8.63;;
25069;SDS011;13064;48.162;11.536;2022-12-07T00:58:50;11.73;;;8.52;;
25069;SDS011;13064;48.162;11.536;2022-12-07T01:01:18;11.95;;;8.75;;
25069;SDS011;13064;48.162;11.536;2022-12-07T01:03:46;10.40;;;7.40;;
25069;SDS011;13064;48.162;11.536;2022-12-07T01:06:14;11.15;;;7.50;;
25069;SDS011;13064;48.162;11.536;2022-12-07T01:08:42;11.88;;;7.90;;
25069;SDS011;13064;48.162;11.536;2022-12-07T01:11:11;9.40;;;7.20;;
25069;SDS011;13064;48.162;11.536;2022-12-07T01:13:40;10.25;;;8.00;;
25069;SDS011;13064;48.162;11.536;2022-12-07T01:16:08;10.85;;;8.43;;
25069;SDS011;13064;48.162;11.536;2022-12-07T01:18:36;10.40;;;7.45;;
25069;SDS011;13064;48.162;11.536;2022-12-07T01:21:05;11.40;;;8.18;;
25069;SDS011;13064;48.162;11.536;2022-12-07T01:23:34;10.98;;;7.90;;
25069;SDS011;13064;48.162;11.536;2022-12-07T01:26:04;10.55;;;8.00;;
25069;SDS011;13064;48.162;11.536;2022-12-07T01:28:32;11.40;;;7.95;;
25069;SDS011;13064;48.162;11.536;2022-12-07T01:31:01;10.95;;;8.05;;
25069;SDS011;13064;48.162;11.536;2022-12-07T01:33:31;13.88;;;7.80;;
25069;SDS011;13064;48.162;11.536;2022-12-07T01:36:03;13.15;;;8.15;;
25069;SDS011;13064;48.162;11.536;2022-12-07T01:40:59;13.13;;;7.90;;
25069;SDS011;13064;48.162;11.536;2022-12-07T01:43:27;11.52;;;8.18;;
25069;SDS011;13064;48.162;11.536;2022-12-07T01:45:56;12.98;;;8.07;;
25069;SDS011;13064;48.162;11.536;2022-12-07T01:48:34;12.50;;;9.20;;
25069;SDS011;13064;48.162;11.536;2022-12-07T01:51:04;11.82;;;8.30;;
25069;SDS011;13064;48.162;11.536;2022-12-07T01:53:33;11.23;;;8.07;;
25069;SDS011;13064;48.162;11.536;2022-12-07T01:56:03;10.65;;;7.68;;
25069;SDS011;13064;48.162;11.536;2022-12-07T01:58:32;12.45;;;8.30;;
25069;SDS011;13064;48.162;11.536;2022-12-07T02:00:59;11.80;;;8.50;;
25069;SDS011;13064;48.162;11.536;2022-12-07T02:03:30;11.05;;;8.07;;
25069;SDS011;13064;48.162;11.536;2022-12-07T02:05:59;10.93;;;8.23;;
25069;SDS011;13064;48.162;11.536;2022-12-07T02:08:27;10.80;;;7.38;;
25069;SDS011;13064;48.162;11.536;2022-12-07T02:10:55;11.18;;;8.35;;
25069;SDS011;13064;48.162;11.536;2022-12-07T02:13:25;14.38;;;7.78;;
25069;SDS011;13064;48.162;11.536;2022-12-07T02:16:03;10.43;;;7.43;;
25069;SDS011;13064;48.162;11.536;2022-12-07T02:24:03;10.50;;;6.95;;
25069;SDS011;13064;48.162;11.536;2022-12-07T02:31:28;11.15;;;8.13;;
25069;SDS011;13064;48.162;11.536;2022-12-07T02:34:03;11.25;;;8.05;;
25069;SDS011;13064;48.162;11.536;2022-12-07T02:36:34;9.80;;;7.22;;
25069;SDS011;13064;48.162;11.536;2022-12-07T02:39:13;10.80;;;8.02;;
25069;SDS011;13064;48.162;11.536;2022-12-07T02:41:44;10.52;;;7.63;;
25069;SDS011;13064;48.162;11.536;2022-12-07T02:44:14;9.63;;;7.43;;
25069;SDS011;13064;48.162;11.536;2022-12-07T02:46:47;12.02;;;8.48;;
25069;SDS011;13064;48.162;11.536;2022-12-07T02:49:16;11.95;;;8.10;;
25069;SDS011;13064;48.162;11.536;2022-12-07T02:51:45;10.13;;;7.57;;
25069;SDS011;13064;48.162;11.536;2022-12-07T02:54:14;10.88;;;7.80;;
25069;SDS011;13064;48.162;11.536;2022-12-07T03:07:26;9.85;;;6.90;;
25069;SDS011;13064;48.162;11.536;2022-12-07T03:10:13;11.80;;;7.18;;
25069;SDS011;13064;48.162;11.536;2022-12-07T03:15:42;11.30;;;7.75;;
25069;SDS011;13064;48.162;11.536;2022-12-07T03:18:12;10.68;;;7.85;;
25069;SDS011;13064;48.162;11.536;2022-12-07T03:20:40;11.23;;;8.18;;
25069;SDS011;13064;48.162;11.536;2022-12-07T03:23:10;11.25;;;7.90;;
25069;SDS011;13064;48.162;11.536;2022-12-07T03:25:40;10.63;;;7.65;;
25069;SDS011;13064;48.162;11.536;2022-12-07T03:28:09;10.68;;;8.05;;
25069;SDS011;13064;48.162;11.536;2022-12-07T03:33:21;11.43;;;8.00;;
25069;SDS011;13064;48.162;11.536;2022-12-07T03:38:35;11.52;;;8.52;;
25069;SDS011;13064;48.162;11.536;2022-12-07T03:41:06;11.52;;;8.38;;
25069;SDS011;13064;48.162;11.536;2022-12-07T03:43:36;12.25;;;8.45;;
25069;SDS011;13064;48.162;11.536;2022-12-07T03:46:48;11.20;;;8.18;;
25069;SDS011;13064;48.162;11.536;2022-12-07T03:48:57;11.60;;;7.93;;
25069;SDS011;13064;48.162;11.536;2022-12-07T03:54:02;12.55;;;8.90;;
25069;SDS011;13064;48.162;11.536;2022-12-07T03:56:32;12.95;;;8.93;;
25069;SDS011;13064;48.162;11.536;2022-12-07T03:59:00;12.18;;;8.60;;
25069;SDS011;13064;48.162;11.536;2022-12-07T04:01:28;13.50;;;9.13;;
25069;SDS011;13064;48.162;11.536;2022-12-07T04:03:56;11.52;;;8.20;;
25069;SDS011;13064;48.162;11.536;2022-12-07T04:06:23;11.25;;;7.97;;
25069;SDS011;13064;48.162;11.536;2022-12-07T04:08:51;12.70;;;8.68;;
25069;SDS011;13064;48.162;11.536;2022-12-07T04:11:18;12.35;;;8.93;;
25069;SDS011;13064;48.162;11.536;2022-12-07T04:13:46;11.38;;;8.25;;
25069;SDS011;13064;48.162;11.536;2022-12-07T04:16:32;11.40;;;8.25;;
25069;SDS011;13064;48.162;11.536;2022-12-07T04:19:06;11.90;;;8.50;;
25069;SDS011;13064;48.162;11.536;2022-12-07T04:21:34;11.57;;;8.45;;
25069;SDS011;13064;48.162;11.536;2022-12-07T04:24:01;11.82;;;8.63;;
25069;SDS011;13064;48.162;11.536;2022-12-07T04:26:29;10.75;;;7.88;;
25069;SDS011;13064;48.162;11.536;2022-12-07T04:28:56;11.43;;;7.97;;
25069;SDS011;13064;48.162;11.536;2022-12-07T04:31:30;11.60;;;8.32;;
25069;SDS011;13064;48.162;11.536;2022-12-07T04:33:58;11.98;;;8.02;;
25069;SDS011;13064;48.162;11.536;2022-12-07T04:36:25;12.90;;;8.88;;
25069;SDS011;13064;48.162;11.536;2022-12-07T04:38:53;12.32;;;8.57;;
25069;SDS011;13064;48.162;11.536;2022-12-07T04:41:22;11.75;;;8.32;;
25069;SDS011;13064;48.162;11.536;2022-12-07T04:46:22;11.55;;;8.55;;
25069;SDS011;13064;48.162;11.536;2022-12-07T04:48:50;13.00;;;8.50;;
25069;SDS011;13064;48.162;11.536;2022-12-07T04:51:19;12.07;;;8.80;;
25069;SDS011;13064;48.162;11.536;2022-12-07T04:53:47;13.00;;;8.93;;
25069;SDS011;13064;48.162;11.536;2022-12-07T04:56:15;12.32;;;8.60;;
25069;SDS011;13064;48.162;11.536;2022-12-07T04:58:44;12.95;;;9.55;;
25069;SDS011;13064;48.162;11.536;2022-12-07T05:01:12;11.55;;;8.50;;
25069;SDS011;13064;48.162;11.536;2022-12-07T05:03:40;12.40;;;8.32;;
25069;SDS011;13064;48.162;11.536;2022-12-07T05:06:08;12.75;;;9.02;;
25069;SDS011;13064;48.162;11.536;2022-12-07T05:08:39;12.63;;;9.20;;
25069;SDS011;13064;48.162;11.536;2022-12-07T05:11:07;14.43;;;9.25;;
25069;SDS011;13064;48.162;11.536;2022-12-07T05:13:35;14.77;;;10.25;;
25069;SDS011;13064;48.162;11.536;2022-12-07T05:16:03;13.32;;;9.55;;
25069;SDS011;13064;48.162;11.536;2022-12-07T05:18:31;12.85;;;9.32;;
25069;SDS011;13064;48.162;11.536;2022-12-07T05:20:58;13.02;;;9.40;;
25069;SDS011;13064;48.162;11.536;2022-12-07T05:23:26;11.90;;;8.40;;
25069;SDS011;13064;48.162;11.536;2022-12-07T05:25:53;13.18;;;9.15;;
25069;SDS011;13064;48.162;11.536;2022-12-07T05:28:21;12.85;;;9.02;;
25069;SDS011;13064;48.162;11.536;2022-12-07T05:30:49;12.60;;;9.48;;
25069;SDS011;13064;48.162;11.536;2022-12-07T05:33:22;14.27;;;9.30;;
25069;SDS011;13064;48.162;11.536;2022-12-07T05:35:50;14.70;;;9.45;;
25069;SDS011;13064;48.162;11.536;2022-12-07T05:38:17;14.98;;;10.43;;
25069;SDS011;13064;48.162;11.536;2022-12-07T05:40:45;13.93;;;9.70;;
25069;SDS011;13064;48.162;11.536;2022-12-07T05:43:12;15.45;;;10.32;;
25069;SDS011;13064;48.162;11.536;2022-12-07T05:45:40;13.75;;;9.93;;
25069;SDS011;13064;48.162;11.536;2022-12-07T05:48:08;15.68;;;10.02;;
25069;SDS011;13064;48.162;11.536;2022-12-07T05:50:35;17.75;;;10.23;;
25069;SDS011;13064;48.162;11.536;2022-12-07T05:53:03;13.25;;;9.90;;
25069;SDS011;13064;48.162;11.536;2022-12-07T05:55:30;13.85;;;9.52;;
25069;SDS011;13064;48.162;11.536;2022-12-07T05:57:58;12.65;;;9.30;;
25069;SDS011;13064;48.162;11.536;2022-12-07T06:00:44;12.45;;;9.32;;
25069;SDS011;13064;48.162;11.536;2022-12-07T06:03:17;12.38;;;9.30;;
25069;SDS011;13064;48.162;11.536;2022-12-07T06:05:44;12.15;;;9.57;;
25069;SDS011;13064;48.162;11.536;2022-12-07T06:08:12;14.85;;;10.10;;
25069;SDS011;13064;48.162;11.536;2022-12-07T06:10:41;13.65;;;10.07;;
25069;SDS011;13064;48.162;11.536;2022-12-07T06:13:09;13.45;;;10.32;;
25069;SDS011;13064;48.162;11.536;2022-12-07T06:15:36;13.48;;;10.15;;
25069;SDS011;13064;48.162;11.536;2022-12-07T06:18:04;13.50;;;10.02;;
25069;SDS011;13064;48.162;11.536;2022-12-07T06:20:32;15.15;;;9.65;;
25069;SDS011;13064;48.162;11.536;2022-12-07T06:22:59;13.85;;;9.48;;
25069;SDS011;13064;48.162;11.536;2022-12-07T06:25:27;13.48;;;9.50;;
25069;SDS011;13064;48.162;11.536;2022-12-07T06:27:55;11.13;;;8.43;;
25069;SDS011;13064;48.162;11.536;2022-12-07T06:30:22;15.13;;;10.27;;
25069;SDS011;13064;48.162;11.536;2022-12-07T06:32:50;14.45;;;9.68;;
25069;SDS011;13064;48.162;11.536;2022-12-07T06:35:17;14.63;;;10.48;;
25069;SDS011;13064;48.162;11.536;2022-12-07T06:37:45;12.43;;;9.77;;
25069;SDS011;13064;48.162;11.536;2022-12-07T06:40:12;13.40;;;9.70;;
25069;SDS011;13064;48.162;11.536;2022-12-07T06:42:40;13.73;;;9.98;;
25069;SDS011;13064;48.162;11.536;2022-12-07T06:45:08;13.43;;;9.55;;
25069;SDS011;13064;48.162;11.536;2022-12-07T06:47:35;15.00;;;10.60;;
25069;SDS011;13064;48.162;11.536;2022-12-07T06:50:10;14.93;;;10.02;;
25069;SDS011;13064;48.162;11.536;2022-12-07T06:52:37;12.98;;;9.60;;
25069;SDS011;13064;48.162;11.536;2022-12-07T06:55:05;13.52;;;9.63;;
25069;SDS011;13064;48.162;11.536;2022-12-07T06:57:33;14.40;;;10.55;;
25069;SDS011;13064;48.162;11.536;2022-12-07T07:00:01;14.15;;;9.57;;
25069;SDS011;13064;48.162;11.536;2022-12-07T07:02:30;13.25;;;10.23;;
25069;SDS011;13064;48.162;11.536;2022-12-07T07:04:57;15.13;;;10.05;;
25069;SDS011;13064;48.162;11.536;2022-12-07T07:07:25;14.23;;;9.90;;
25069;SDS011;13064;48.162;11.536;2022-12-07T07:09:53;10.98;;;8.82;;
25069;SDS011;13064;48.162;11.536;2022-12-07T07:12:20;13.32;;;10.05;;
25069;SDS011;13064;48.162;11.536;2022-12-07T07:14:48;15.27;;;10.35;;
25069;SDS011;13064;48.162;11.536;2022-12-07T07:17:16;13.60;;;10.18;;
25069;SDS011;13064;48.162;11.536;2022-12-07T07:19:43;13.30;;;9.90;;
25069;SDS011;13064;48.162;11.536;2022-12-07T07:22:11;15.82;;;10.63;;
25069;SDS011;13064;48.162;11.536;2022-12-07T07:24:38;15.77;;;10.43;;
25069;SDS011;13064;48.162;11.536;2022-12-07T07:27:06;15.70;;;11.45;;
25069;SDS011;13064;48.162;11.536;2022-12-07T07:29:34;15.80;;;11.07;;
25069;SDS011;13064;48.162;11.536;2022-12-07T07:32:01;13.02;;;9.68;;
25069;SDS011;13064;48.162;11.536;2022-12-07T07:34:32;16.90;;;11.15;;
25069;SDS011;13064;48.162;11.536;2022-12-07T07:37:00;15.18;;;10.55;;
25069;SDS011;13064;48.162;11.536;2022-12-07T07:39:28;14.95;;;10.85;;
25069;SDS011;13064;48.162;11.536;2022-12-07T07:41:55;15.10;;;11.13;;
25069;SDS011;13064;48.162;11.536;2022-12-07T07:44:26;14.35;;;10.55;;
25069;SDS011;13064;48.162;11.536;2022-12-07T07:47:00;13.65;;;10.25;;
25069;SDS011;13064;48.162;11.536;2022-12-07T07:49:28;15.98;;;10.93;;
25069;SDS011;13064;48.162;11.536;2022-12-07T07:51:56;14.88;;;11.15;;
25069;SDS011;13064;48.162;11.536;2022-12-07T07:54:23;17.05;;;11.85;;
25069;SDS011;13064;48.162;11.536;2022-12-07T07:56:52;14.75;;;10.40;;
25069;SDS011;13064;48.162;11.536;2022-12-07T07:59:19;15.70;;;11.32;;
25069;SDS011;13064;48.162;11.536;2022-12-07T08:01:47;16.50;;;11.10;;
25069;SDS011;13064;48.162;11.536;2022-12-07T08:04:14;14.93;;;10.63;;
25069;SDS011;13064;48.162;11.536;2022-12-07T08:06:42;16.35;;;11.38;;
25069;SDS011;13064;48.162;11.536;2022-12-07T08:09:10;18.33;;;11.52;;
25069;SDS011;13064;48.162;11.536;2022-12-07T08:11:38;15.55;;;10.88;;
25069;SDS011;13064;48.162;11.536;2022-12-07T08:14:05;15.63;;;11.93;;
25069;SDS011;13064;48.162;11.536;2022-12-07T08:16:33;16.55;;;11.27;;
25069;SDS011;13064;48.162;11.536;2022-12-07T08:19:00;17.23;;;11.60;;
25069;SDS011;13064;48.162;11.536;2022-12-07T08:21:28;18.42;;;12.82;;
25069;SDS011;13064;48.162;11.536;2022-12-07T08:23:56;18.05;;;12.77;;
25069;SDS011;13064;48.162;11.536;2022-12-07T08:26:24;15.30;;;11.25;;
25069;SDS011;13064;48.162;11.536;2022-12-07T08:28:52;15.60;;;11.07;;
25069;SDS011;13064;48.162;11.536;2022-12-07T08:31:20;18.33;;;11.93;;
25069;SDS011;13064;48.162;11.536;2022-12-07T08:33:48;14.93;;;10.82;;
25069;SDS011;13064;48.162;11.536;2022-12-07T08:36:16;17.15;;;12.55;;
25069;SDS011;13064;48.162;11.536;2022-12-07T08:38:43;16.85;;;12.15;;
25069;SDS011;13064;48.162;11.536;2022-12-07T08:41:31;19.45;;;12.68;;
25069;SDS011;13064;48.162;11.536;2022-12-07T08:43:59;19.42;;;13.45;;
25069;SDS011;13064;48.162;11.536;2022-12-07T08:49:05;18.63;;;12.70;;
25069;SDS011;13064;48.162;11.536;2022-12-07T08:51:34;17.05;;;11.70;;
25069;SDS011;13064;48.162;11.536;2022-12-07T08:54:03;16.70;;;12.07;;
25069;SDS011;13064;48.162;11.536;2022-12-07T08:56:32;14.98;;;10.52;;
25069;SDS011;13064;48.162;11.536;2022-12-07T08:59:00;16.17;;;11.23;;
25069;SDS011;13064;48.162;11.536;2022-12-07T09:01:28;16.45;;;10.90;;
25069;SDS011;13064;48.162;11.536;2022-12-07T09:03:55;13.55;;;10.38;;
25069;SDS011;13064;48.162;11.536;2022-12-07T09:06:23;14.63;;;10.40;;
25069;SDS011;13064;48.162;11.536;2022-12-07T09:08:52;14.48;;;10.38;;
25069;SDS011;13064;48.162;11.536;2022-12-07T09:11:22;13.70;;;9.77;;
25069;SDS011;13064;48.162;11.536;2022-12-07T09:13:54;12.77;;;10.07;;
25069;SDS011;13064;48.162;11.536;2022-12-07T09:16:22;21.52;;;10.68;;
25069;SDS011;13064;48.162;11.536;2022-12-07T09:18:50;12.07;;;9.27;;
25069;SDS011;13064;48.162;11.536;2022-12-07T09:21:17;13.43;;;9.75;;
25069;SDS011;13064;48.162;11.536;2022-12-07T09:23:45;11.95;;;9.10;;
25069;SDS011;13064;48.162;11.536;2022-12-07T09:26:13;13.27;;;8.77;;
25069;SDS011;13064;48.162;11.536;2022-12-07T09:28:40;13.40;;;9.27;;
25069;SDS011;13064;48.162;11.536;2022-12-07T09:31:08;14.52;;;9.77;;
25069;SDS011;13064;48.162;11.536;2022-12-07T09:33:53;18.95;;;9.13;;
25069;SDS011;13064;48.162;11.536;2022-12-07T09:36:22;13.02;;;8.77;;
25069;SDS011;13064;48.162;11.536;2022-12-07T09:38:49;12.65;;;8.35;;
25069;SDS011;13064;48.162;11.536;2022-12-07T09:41:17;10.70;;;8.30;;
25069;SDS011;13064;48.162;11.536;2022-12-07T09:43:45;11.85;;;8.80;;
25069;SDS011;13064;48.162;11.536;2022-12-07T09:46:14;12.77;;;9.50;;
25069;SDS011;13064;48.162;11.536;2022-12-07T09:48:44;13.55;;;9.43;;
25069;SDS011;13064;48.162;11.536;2022-12-07T09:51:19;12.88;;;9.00;;
25069;SDS011;13064;48.162;11.536;2022-12-07T09:53:50;15.43;;;9.18;;
25069;SDS011;13064;48.162;11.536;2022-12-07T09:56:19;13.52;;;10.10;;
25069;SDS011;13064;48.162;11.536;2022-12-07T09:58:47;12.00;;;9.45;;
25069;SDS011;13064;48.162;11.536;2022-12-07T10:01:19;14.98;;;9.38;;
25069;SDS011;13064;48.162;11.536;2022-12-07T10:03:49;12.50;;;8.85;;
25069;SDS011;13064;48.162;11.536;2022-12-07T10:06:17;11.93;;;9.02;;
25069;SDS011;13064;48.162;11.536;2022-12-07T10:08:45;13.25;;;8.95;;
25069;SDS011;13064;48.162;11.536;2022-12-07T10:11:12;13.80;;;9.15;;
25069;SDS011;13064;48.162;11.536;2022-12-07T10:13:42;14.75;;;9.18;;
25069;SDS011;13064;48.162;11.536;2022-12-07T10:18:54;12.23;;;9.25;;
25069;SDS011;13064;48.162;11.536;2022-12-07T10:21:23;12.57;;;9.38;;
25069;SDS011;13064;48.162;11.536;2022-12-07T10:26:32;14.60;;;9.30;;
25069;SDS011;13064;48.162;11.536;2022-12-07T10:29:20;10.27;;;8.05;;
25069;SDS011;13064;48.162;11.536;2022-12-07T10:31:58;13.13;;;9.00;;
25069;SDS011;13064;48.162;11.536;2022-12-07T10:39:43;12.25;;;8.30;;
25069;SDS011;13064;48.162;11.536;2022-12-07T10:42:45;10.77;;;8.20;;
25069;SDS011;13064;48.162;11.536;2022-12-07T10:47:45;12.18;;;8.00;;
25069;SDS011;13064;48.162;11.536;2022-12-07T10:50:22;12.90;;;8.13;;
25069;SDS011;13064;48.162;11.536;2022-12-07T11:01:08;12.05;;;6.55;;
25069;SDS011;13064;48.162;11.536;2022-12-07T11:11:38;8.00;;;6.47;;
25069;SDS011;13064;48.162;11.536;2022-12-07T11:14:14;8.50;;;6.60;;
25069;SDS011;13064;48.162;11.536;2022-12-07T11:16:56;7.88;;;6.75;;
25069;SDS011;13064;48.162;11.536;2022-12-07T11:22:13;9.27;;;6.13;;
25069;SDS011;13064;48.162;11.536;2022-12-07T11:27:28;8.05;;;6.22;;
25069;SDS011;13064;48.162;11.536;2022-12-07T11:30:03;6.88;;;5.43;;
25069;SDS011;13064;48.162;11.536;2022-12-07T11:35:08;7.55;;;6.15;;
25069;SDS011;13064;48.162;11.536;2022-12-07T11:37:38;6.32;;;5.13;;
25069;SDS011;13064;48.162;11.536;2022-12-07T11:43:05;6.85;;;5.10;;
25069;SDS011;13064;48.162;11.536;2022-12-07T11:45:34;6.75;;;4.95;;
25069;SDS011;13064;48.162;11.536;2022-12-07T11:50:48;6.28;;;4.65;;
25069;SDS011;13064;48.162;11.536;2022-12-07T11:53:18;7.00;;;5.03;;
25069;SDS011;13064;48.162;11.536;2022-12-07T11:55:57;6.63;;;4.93;;
25069;SDS011;13064;48.162;11.536;2022-12-07T12:06:38;7.65;;;5.22;;
25069;SDS011;13064;48.162;11.536;2022-12-07T12:15:42;7.90;;;5.07;;
25069;SDS011;13064;48.162;11.536;2022-12-07T12:20:24;7.35;;;5.50;;
25069;SDS011;13064;48.162;11.536;2022-12-07T12:23:00;7.18;;;5.35;;
25069;SDS011;13064;48.162;11.536;2022-12-07T12:25:30;8.23;;;5.63;;
25069;SDS011;13064;48.162;11.536;2022-12-07T12:27:59;8.38;;;5.43;;
25069;SDS011;13064;48.162;11.536;2022-12-07T12:30:30;6.53;;;4.97;;
25069;SDS011;13064;48.162;11.536;2022-12-07T12:35:36;9.18;;;5.40;;
25069;SDS011;13064;48.162;11.536;2022-12-07T12:38:37;9.10;;;5.70;;
25069;SDS011;13064;48.162;11.536;2022-12-07T12:40:58;8.10;;;6.10;;
25069;SDS011;13064;48.162;11.536;2022-12-07T12:43:42;8.23;;;5.97;;
25069;SDS011;13064;48.162;11.536;2022-12-07T12:54:31;11.63;;;7.15;;
25069;SDS011;13064;48.162;11.536;2022-12-07T12:57:09;8.90;;;6.03;;
25069;SDS011;13064;48.162;11.536;2022-12-07T13:04:48;12.20;;;6.55;;
25069;SDS011;13064;48.162;11.536;2022-12-07T13:10:04;9.07;;;6.32;;
25069;SDS011;13064;48.162;11.536;2022-12-07T13:12:32;9.15;;;6.28;;
25069;SDS011;13064;48.162;11.536;2022-12-07T13:14:59;8.23;;;6.20;;
25069;SDS011;13064;48.162;11.536;2022-12-07T13:24:57;9.68;;;6.32;;
25069;SDS011;13064;48.162;11.536;2022-12-07T13:27:27;10.35;;;6.97;;
25069;SDS011;13064;48.162;11.536;2022-12-07T13:29:56;11.25;;;7.10;;
25069;SDS011;13064;48.162;11.536;2022-12-07T13:32:25;13.13;;;6.78;;
25069;SDS011;13064;48.162;11.536;2022-12-07T13:34:53;9.02;;;6.55;;
25069;SDS011;13064;48.162;11.536;2022-12-07T13:37:23;10.25;;;6.93;;
25069;SDS011;13064;48.162;11.536;2022-12-07T13:42:29;10.57;;;7.00;;
25069;SDS011;13064;48.162;11.536;2022-12-07T13:44:58;8.82;;;6.50;;
25069;SDS011;13064;48.162;11.536;2022-12-07T13:47:41;9.95;;;7.18;;
25069;SDS011;13064;48.162;11.536;2022-12-07T13:50:22;11.60;;;6.75;;
25069;SDS011;13064;48.162;11.536;2022-12-07T13:52:54;10.98;;;7.38;;
25069;SDS011;13064;48.162;11.536;2022-12-07T13:55:22;11.32;;;7.28;;
25069;SDS011;13064;48.162;11.536;2022-12-07T13:57:51;11.98;;;7.43;;
25069;SDS011;13064;48.162;11.536;2022-12-07T14:00:26;12.52;;;7.57;;
25069;SDS011;13064;48.162;11.536;2022-12-07T14:02:56;9.40;;;6.65;;
25069;SDS011;13064;48.162;11.536;2022-12-07T14:05:26;9.45;;;6.57;;
25069;SDS011;13064;48.162;11.536;2022-12-07T14:08:01;9.93;;;6.72;;
25069;SDS011;13064;48.162;11.536;2022-12-07T14:12:58;9.50;;;6.57;;
25069;SDS011;13064;48.162;11.536;2022-12-07T14:15:32;9.43;;;6.13;;
25069;SDS011;13064;48.162;11.536;2022-12-07T14:18:01;8.85;;;6.13;;
25069;SDS011;13064;48.162;11.536;2022-12-07T14:20:37;11.32;;;6.50;;
25069;SDS011;13064;48.162;11.536;2022-12-07T14:23:06;9.52;;;6.35;;
25069;SDS011;13064;48.162;11.536;2022-12-07T14:25:51;8.63;;;6.13;;
25069;SDS011;13064;48.162;11.536;2022-12-07T14:28:29;8.43;;;5.72;;
25069;SDS011;13064;48.162;11.536;2022-12-07T14:30:57;7.97;;;5.15;;
25069;SDS011;13064;48.162;11.536;2022-12-07T14:33:25;7.63;;;4.55;;
25069;SDS011;13064;48.162;11.536;2022-12-07T14:35:54;7.78;;;4.63;;
25069;SDS011;13064;48.162;11.536;2022-12-07T14:38:25;7.40;;;4.85;;
25069;SDS011;13064;48.162;11.536;2022-12-07T14:40:53;8.02;;;5.05;;
25069;SDS011;13064;48.162;11.536;2022-12-07T14:43:23;7.88;;;4.80;;
25069;SDS011;13064;48.162;11.536;2022-12-07T14:45:50;8.70;;;5.00;;
25069;SDS011;13064;48.162;11.536;2022-12-07T14:48:18;6.70;;;4.63;;
25069;SDS011;13064;48.162;11.536;2022-12-07T14:51:07;7.18;;;4.63;;
25069;SDS011;13064;48.162;11.536;2022-12-07T14:53:55;7.60;;;5.07;;
25069;SDS011;13064;48.162;11.536;2022-12-07T14:56:24;7.30;;;4.57;;
25069;SDS011;13064;48.162;11.536;2022-12-07T14:58:51;9.77;;;5.15;;
25069;SDS011;13064;48.162;11.536;2022-12-07T15:01:19;8.95;;;5.07;;
25069;SDS011;13064;48.162;11.536;2022-12-07T15:03:46;9.82;;;5.43;;
25069;SDS011;13064;48.162;11.536;2022-12-07T15:06:17;8.90;;;5.15;;
25069;SDS011;13064;48.162;11.536;2022-12-07T15:08:45;10.02;;;5.32;;
25069;SDS011;13064;48.162;11.536;2022-12-07T15:11:13;9.10;;;5.18;;
25069;SDS011;13064;48.162;11.536;2022-12-07T15:13:41;10.95;;;5.57;;
25069;SDS011;13064;48.162;11.536;2022-12-07T15:16:27;7.82;;;4.88;;
25069;SDS011;13064;48.162;11.536;2022-12-07T15:19:13;10.98;;;5.13;;
25069;SDS011;13064;48.162;11.536;2022-12-07T15:21:57;7.80;;;4.85;;
25069;SDS011;13064;48.162;11.536;2022-12-07T15:24:26;7.43;;;5.10;;
25069;SDS011;13064;48.162;11.536;2022-12-07T15:26:54;11.40;;;5.20;;
25069;SDS011;13064;48.162;11.536;2022-12-07T15:29:21;8.95;;;5.40;;
25069;SDS011;13064;48.162;11.536;2022-12-07T15:31:50;8.82;;;5.50;;
25069;SDS011;13064;48.162;11.536;2022-12-07T15:34:25;7.95;;;5.53;;
25069;SDS011;13064;48.162;11.536;2022-12-07T15:37:01;9.90;;;5.88;;
25069;SDS011;13064;48.162;11.536;2022-12-07T15:39:29;11.50;;;6.10;;
25069;SDS011;13064;48.162;11.536;2022-12-07T15:41:57;9.48;;;6.22;;
25069;SDS011;13064;48.162;11.536;2022-12-07T15:44:25;10.65;;;6.30;;
25069;SDS011;13064;48.162;11.536;2022-12-07T15:47:11;11.13;;;6.82;;
25069;SDS011;13064;48.162;11.536;2022-12-07T15:49:39;9.52;;;6.30;;
25069;SDS011;13064;48.162;11.536;2022-12-07T15:52:06;12.70;;;6.40;;
25069;SDS011;13064;48.162;11.536;2022-12-07T15:54:34;13.02;;;6.80;;
25069;SDS011;13064;48.162;11.536;2022-12-07T15:57:01;11.32;;;7.18;;
25069;SDS011;13064;48.162;11.536;2022-12-07T15:59:29;14.75;;;7.72;;
25069;SDS011;13064;48.162;11.536;2022-12-07T16:01:57;13.45;;;7.70;;
25069;SDS011;13064;48.162;11.536;2022-12-07T16:04:26;12.55;;;7.45;;
25069;SDS011;13064;48.162;11.536;2022-12-07T16:06:55;12.25;;;7.78;;
25069;SDS011;13064;48.162;11.536;2022-12-07T16:09:23;10.75;;;7.28;;
25069;SDS011;13064;48.162;11.536;2022-12-07T16:11:50;10.65;;;6.40;;
25069;SDS011;13064;48.162;11.536;2022-12-07T16:14:18;13.35;;;8.07;;
25069;SDS011;13064;48.162;11.536;2022-12-07T16:16:46;11.43;;;7.45;;
25069;SDS011;13064;48.162;11.536;2022-12-07T16:19:14;10.20;;;7.10;;
25069;SDS011;13064;48.162;11.536;2022-12-07T16:21:42;11.05;;;7.13;;
25069;SDS011;13064;48.162;11.536;2022-12-07T16:24:09;11.73;;;7.15;;
25069;SDS011;13064;48.162;11.536;2022-12-07T16:26:39;13.88;;;8.15;;
25069;SDS011;13064;48.162;11.536;2022-12-07T16:29:15;13.57;;;7.90;;
25069;SDS011;13064;48.162;11.536;2022-12-07T16:31:43;13.65;;;7.63;;
25069;SDS011;13064;48.162;11.536;2022-12-07T16:34:11;13.23;;;8.00;;
25069;SDS011;13064;48.162;11.536;2022-12-07T16:36:39;14.02;;;8.18;;
25069;SDS011;13064;48.162;11.536;2022-12-07T16:39:26;11.32;;;6.82;;
25069;SDS011;13064;48.162;11.536;2022-12-07T16:41:54;11.88;;;7.65;;
25069;SDS011;13064;48.162;11.536;2022-12-07T16:44:21;15.82;;;8.57;;
25069;SDS011;13064;48.162;11.536;2022-12-07T16:46:49;12.35;;;7.43;;
25069;SDS011;13064;48.162;11.536;2022-12-07T16:49:17;15.85;;;9.80;;